createdAt,value
2017-10-20T00:02:10.062Z,57.93
2017-10-20T00:04:44.632Z,58.20
2017-10-20T00:07:19.147Z,58.87
2017-10-20T00:09:53.766Z,57.77
2017-10-20T00:12:28.378Z,54.97
2017-10-20T00:17:43.758Z,50.53
2017-10-20T00:20:18.348Z,49.50
2017-10-20T00:22:52.897Z,52.57
2017-10-20T00:25:27.358Z,52.93
2017-10-20T00:28:01.935Z,53.90
2017-10-20T00:30:36.542Z,53.57
2017-10-20T00:33:11.079Z,56.20
2017-10-20T00:35:45.755Z,53.13
2017-10-20T00:38:21.177Z,51.67
2017-10-20T00:40:55.754Z,61.50
2017-10-20T00:43:30.257Z,53.93
2017-10-20T00:46:04.822Z,53.60
2017-10-20T00:48:39.330Z,56.03
2017-10-20T00:51:13.961Z,57.17
2017-10-20T00:53:48.614Z,58.73
2017-10-20T00:56:23.142Z,57.33
2017-10-20T00:58:57.106Z,56.93
2017-10-20T01:01:31.782Z,60.93
2017-10-20T01:04:06.344Z,56.20
2017-10-20T01:06:41.583Z,60.10
2017-10-20T01:09:16.778Z,57.30
2017-10-20T01:11:51.290Z,52.13
2017-10-20T01:14:25.814Z,43.10
2017-10-20T01:17:00.386Z,50.57
2017-10-20T01:19:34.687Z,52.10
2017-10-20T01:22:09.130Z,51.97
2017-10-20T01:24:42.842Z,59.50
2017-10-20T01:27:16.595Z,53.00
2017-10-20T01:29:51.104Z,49.70
2017-10-20T01:32:24.922Z,46.90
2017-10-20T01:34:58.757Z,50.30
2017-10-20T01:37:32.890Z,48.23
2017-10-20T01:40:10.598Z,51.50
2017-10-20T01:42:44.877Z,48.13
2017-10-20T01:45:19.316Z,53.10
2017-10-20T01:47:53.590Z,51.73
2017-10-20T01:50:29.047Z,54.40
2017-10-20T01:53:02.833Z,49.83
2017-10-20T01:55:37.407Z,50.57
2017-10-20T01:58:12.074Z,42.50
2017-10-20T02:00:46.665Z,52.27
2017-10-20T02:03:20.754Z,51.37
2017-10-20T02:05:55.341Z,51.53
2017-10-20T02:08:29.948Z,48.20
2017-10-20T02:11:04.430Z,48.83
2017-10-20T02:13:38.966Z,48.10
2017-10-20T02:16:13.533Z,52.87
2017-10-20T02:18:48.023Z,45.90
2017-10-20T02:21:22.649Z,48.30
2017-10-20T02:23:57.961Z,48.73
2017-10-20T02:26:32.547Z,56.23
2017-10-20T02:29:07.265Z,48.07
2017-10-20T02:31:41.802Z,46.40
2017-10-20T02:34:16.479Z,55.70
2017-10-20T02:36:51.045Z,48.40
2017-10-20T02:39:25.717Z,59.90
2017-10-20T02:42:00.246Z,56.27
2017-10-20T02:44:34.716Z,50.23
2017-10-20T02:47:09.270Z,51.50
2017-10-20T02:49:43.969Z,56.57
2017-10-20T02:52:18.278Z,51.50
2017-10-20T02:54:52.806Z,53.60
2017-10-20T02:57:27.306Z,68.70
2017-10-20T03:00:01.957Z,60.20
2017-10-20T03:02:36.494Z,74.93
2017-10-20T03:05:11.063Z,83.83
2017-10-20T03:07:45.786Z,74.93
2017-10-20T03:10:20.384Z,83.67
2017-10-20T03:12:55.761Z,122.40
2017-10-20T03:15:30.208Z,131.30
2017-10-20T03:18:04.765Z,150.43
2017-10-20T03:20:39.337Z,132.20
2017-10-20T03:23:14.788Z,152.47
2017-10-20T03:25:49.214Z,154.67
2017-10-20T03:28:24.440Z,161.60
2017-10-20T03:30:59.018Z,139.03
2017-10-20T03:33:33.730Z,140.23
2017-10-20T03:36:08.494Z,139.47
2017-10-20T03:38:43.153Z,120.70
2017-10-20T03:41:17.754Z,117.20
2017-10-20T03:43:52.462Z,125.13
2017-10-20T03:46:27.015Z,122.80
2017-10-20T03:49:01.502Z,119.50
2017-10-20T03:51:35.853Z,126.63
2017-10-20T03:54:10.624Z,133.77
2017-10-20T03:56:45.143Z,127.10
2017-10-20T03:59:19.629Z,132.43
2017-10-20T04:01:54.344Z,124.23
2017-10-20T04:04:28.462Z,134.27
2017-10-20T04:07:03.077Z,137.00
2017-10-20T04:09:37.637Z,129.73
2017-10-20T04:12:11.653Z,122.10
2017-10-20T04:14:46.152Z,135.07
2017-10-20T04:17:20.578Z,134.03
2017-10-20T04:19:55.234Z,142.97
2017-10-20T04:22:29.767Z,143.10
2017-10-20T04:25:06.107Z,133.60
2017-10-20T04:27:40.541Z,144.50
2017-10-20T04:30:15.110Z,134.37
2017-10-20T04:32:49.694Z,148.03
2017-10-20T04:35:24.276Z,147.43
2017-10-20T04:37:59.066Z,131.43
2017-10-20T04:40:33.615Z,146.77
2017-10-20T04:43:08.310Z,129.23
2017-10-20T04:45:42.814Z,125.47
2017-10-20T04:48:17.471Z,129.40
2017-10-20T04:50:52.014Z,117.83
2017-10-20T04:53:26.609Z,113.43
2017-10-20T04:56:01.180Z,125.60
2017-10-20T04:58:35.805Z,113.70
2017-10-20T05:01:10.409Z,109.30
2017-10-20T05:03:44.929Z,101.50
2017-10-20T05:06:19.517Z,85.60
2017-10-20T05:08:54.186Z,107.43
2017-10-20T05:11:28.758Z,111.20
2017-10-20T05:14:02.891Z,98.47
2017-10-20T05:16:37.492Z,102.67
2017-10-20T05:19:12.141Z,118.87
2017-10-20T05:21:47.485Z,118.53
2017-10-20T05:24:21.929Z,100.70
2017-10-20T05:26:56.590Z,147.73
2017-10-20T05:29:30.856Z,115.47
2017-10-20T05:32:05.488Z,114.33
2017-10-20T05:34:40.273Z,116.60
2017-10-20T05:37:14.944Z,113.33
2017-10-20T05:39:49.620Z,116.37
2017-10-20T05:42:24.207Z,101.00
2017-10-20T05:44:58.706Z,105.53
2017-10-20T05:47:33.275Z,103.23
2017-10-20T05:50:08.247Z,116.00
2017-10-20T05:52:42.774Z,109.30
2017-10-20T05:55:17.332Z,106.27
2017-10-20T05:57:53.965Z,116.47
2017-10-20T06:00:28.263Z,106.87
2017-10-20T06:03:03.191Z,103.30
2017-10-20T06:05:37.741Z,104.43
2017-10-20T06:08:12.399Z,103.50
2017-10-20T06:10:47.726Z,113.50
2017-10-20T06:13:22.403Z,112.17
2017-10-20T06:15:56.877Z,112.03
2017-10-20T06:18:32.343Z,114.43
2017-10-20T06:21:06.803Z,110.17
2017-10-20T06:23:41.410Z,123.93
2017-10-20T06:26:15.998Z,124.37
2017-10-20T06:28:50.484Z,121.33
2017-10-20T06:31:26.082Z,135.77
2017-10-20T06:34:00.555Z,121.17
2017-10-20T06:36:35.150Z,124.27
2017-10-20T06:39:09.709Z,113.00
2017-10-20T06:41:44.301Z,120.03
2017-10-20T06:44:18.749Z,106.60
2017-10-20T06:46:53.319Z,106.13
2017-10-20T06:49:27.965Z,123.63
2017-10-20T06:52:02.611Z,116.23
2017-10-20T06:54:37.199Z,119.77
2017-10-20T06:57:11.474Z,118.10
2017-10-20T06:59:46.206Z,118.80
2017-10-20T07:02:20.774Z,128.10
2017-10-20T07:04:55.242Z,133.77
2017-10-20T07:07:29.810Z,119.53
2017-10-20T07:10:13.087Z,115.67
2017-10-20T07:12:47.516Z,119.70
2017-10-20T07:15:21.771Z,181.47
2017-10-20T07:17:56.210Z,165.07
2017-10-20T07:20:46.255Z,163.97
2017-10-20T07:23:20.754Z,178.67
2017-10-20T07:25:55.234Z,177.17
2017-10-20T07:28:29.879Z,140.90
2017-10-20T07:31:03.722Z,182.07
2017-10-20T07:33:38.122Z,132.20
2017-10-20T07:36:12.713Z,121.40
2017-10-20T07:38:47.154Z,148.03
2017-10-20T07:41:21.857Z,122.07
2017-10-20T07:43:56.105Z,124.37
2017-10-20T07:46:30.574Z,117.83
2017-10-20T07:49:04.488Z,131.30
2017-10-20T07:51:38.982Z,136.50
2017-10-20T07:54:13.475Z,128.63
2017-10-20T07:56:48.082Z,103.80
2017-10-20T07:59:22.734Z,129.23
2017-10-20T08:01:57.303Z,120.47
2017-10-20T08:04:31.551Z,103.03
2017-10-20T08:07:06.770Z,101.63
2017-10-20T08:09:41.371Z,84.00
2017-10-20T08:12:15.945Z,96.93
2017-10-20T08:14:50.594Z,88.50
2017-10-20T08:17:25.185Z,115.60
2017-10-20T08:19:59.782Z,113.37
2017-10-20T08:22:34.353Z,108.47
2017-10-20T08:25:11.766Z,99.80
2017-10-20T08:27:46.374Z,111.30
2017-10-20T08:30:20.894Z,105.03
2017-10-20T08:32:55.414Z,111.40
2017-10-20T08:35:29.945Z,89.57
2017-10-20T08:38:04.550Z,128.07
2017-10-20T08:40:39.194Z,132.33
2017-10-20T08:43:13.803Z,145.67
2017-10-20T08:45:47.698Z,117.60
2017-10-20T08:48:22.130Z,100.80
2017-10-20T08:50:56.458Z,121.13
2017-10-20T08:53:31.091Z,112.67
2017-10-20T08:56:05.702Z,130.07
2017-10-20T08:58:40.306Z,127.87
2017-10-20T09:01:14.870Z,125.67
2017-10-20T09:03:49.393Z,132.13
2017-10-20T09:06:24.045Z,107.13
2017-10-20T09:08:58.628Z,131.40
2017-10-20T09:11:33.191Z,131.93
2017-10-20T09:14:07.015Z,111.63
2017-10-20T09:16:41.550Z,123.77
2017-10-20T09:19:16.146Z,116.50
2017-10-20T09:21:50.766Z,115.47
2017-10-20T09:24:25.998Z,103.37
2017-10-20T09:27:00.750Z,110.27
2017-10-20T09:29:35.393Z,119.07
2017-10-20T09:32:09.934Z,130.37
2017-10-20T09:34:44.568Z,104.83
2017-10-20T09:37:19.050Z,132.87
2017-10-20T09:39:53.622Z,121.33
2017-10-20T09:42:28.214Z,120.00
2017-10-20T09:45:03.161Z,120.93
2017-10-20T09:47:44.406Z,137.30
2017-10-20T09:50:19.138Z,110.27
2017-10-20T09:52:54.025Z,105.73
2017-10-20T09:55:28.640Z,89.97
2017-10-20T09:58:03.322Z,89.73
2017-10-20T10:00:37.846Z,104.97
2017-10-20T10:03:12.539Z,90.87
2017-10-20T10:05:47.121Z,88.53
2017-10-20T10:08:21.582Z,74.40
2017-10-20T10:10:56.226Z,82.73
2017-10-20T10:13:30.612Z,76.37
2017-10-20T10:16:05.076Z,66.70
2017-10-20T10:18:39.779Z,90.77
2017-10-20T10:21:14.078Z,91.83
2017-10-20T10:23:48.775Z,100.60
2017-10-20T10:26:23.326Z,82.30
2017-10-20T10:28:57.743Z,106.57
2017-10-20T10:31:32.361Z,84.33
2017-10-20T10:34:06.977Z,84.40
2017-10-20T10:36:41.408Z,80.50
2017-10-20T10:39:16.095Z,74.33
2017-10-20T10:41:50.559Z,70.17
2017-10-20T10:44:25.223Z,93.57
2017-10-20T10:46:59.735Z,76.00
2017-10-20T10:49:34.399Z,84.23
2017-10-20T10:52:08.873Z,65.13
2017-10-20T10:54:43.353Z,69.10
2017-10-20T10:57:17.560Z,87.00
2017-10-20T10:59:51.826Z,68.10
2017-10-20T11:02:26.226Z,68.87
2017-10-20T11:05:08.730Z,83.00
2017-10-20T11:07:54.326Z,72.57
2017-10-20T11:13:20.454Z,73.10
2017-10-20T11:15:54.873Z,72.90
2017-10-20T11:18:29.402Z,79.80
2017-10-20T11:21:04.016Z,67.63
2017-10-20T11:23:38.734Z,57.77
2017-10-20T11:26:13.305Z,76.40
2017-10-20T11:28:47.899Z,70.03
2017-10-20T11:31:22.530Z,65.10
2017-10-20T11:33:57.838Z,63.70
2017-10-20T11:36:32.608Z,97.13
2017-10-20T11:39:07.237Z,107.83
2017-10-20T11:41:41.763Z,95.87
2017-10-20T11:44:15.931Z,108.07
2017-10-20T11:46:50.500Z,101.83
2017-10-20T11:49:24.938Z,124.67
2017-10-20T11:51:59.457Z,110.57
2017-10-20T11:54:34.045Z,107.63
2017-10-20T11:57:07.986Z,97.57
2017-10-20T11:59:42.612Z,127.00
2017-10-20T12:02:17.885Z,125.73
2017-10-20T12:04:52.426Z,111.93
2017-10-20T12:07:27.126Z,97.23
2017-10-20T12:10:01.801Z,108.17
2017-10-20T12:12:36.320Z,97.03
2017-10-20T12:15:14.433Z,119.67
2017-10-20T12:17:49.074Z,116.30
2017-10-20T12:20:23.715Z,113.23
2017-10-20T12:22:58.190Z,98.20
2017-10-20T12:25:33.519Z,112.07
2017-10-20T12:28:08.142Z,112.67
2017-10-20T12:30:42.679Z,118.90
2017-10-20T12:33:17.422Z,96.50
2017-10-20T12:35:51.939Z,107.97
2017-10-20T12:38:26.510Z,88.83
2017-10-20T12:41:01.127Z,105.13
2017-10-20T12:43:35.741Z,91.77
2017-10-20T12:46:10.338Z,91.37
2017-10-20T12:48:44.895Z,103.03
2017-10-20T12:51:20.268Z,90.13
2017-10-20T12:53:54.829Z,102.27
2017-10-20T12:56:29.453Z,75.53
2017-10-20T12:59:03.990Z,79.07
2017-10-20T13:01:38.769Z,82.87
2017-10-20T13:04:13.361Z,73.67
2017-10-20T13:06:47.786Z,95.50
2017-10-20T13:09:22.218Z,78.33
2017-10-20T13:11:56.822Z,77.43
2017-10-20T13:14:32.206Z,68.90
2017-10-20T13:17:06.666Z,64.67
2017-10-20T13:19:41.162Z,76.83
2017-10-20T13:22:15.742Z,76.77
2017-10-20T13:24:50.366Z,73.47
2017-10-20T13:27:24.893Z,69.83
2017-10-20T13:29:59.397Z,66.40
2017-10-20T13:32:34.015Z,73.37
2017-10-20T13:35:15.283Z,85.10
2017-10-20T13:37:49.959Z,66.73
2017-10-20T13:40:24.451Z,65.00
2017-10-20T13:42:59.104Z,74.57
2017-10-20T13:45:33.667Z,81.77
2017-10-20T13:48:08.264Z,69.67
2017-10-20T13:50:42.766Z,70.37
2017-10-20T13:53:17.461Z,66.53
2017-10-20T13:55:52.102Z,66.70
2017-10-20T13:58:26.825Z,88.43
2017-10-20T14:01:01.450Z,76.63
2017-10-20T14:03:35.712Z,66.33
2017-10-20T14:06:10.847Z,78.50
2017-10-20T14:08:45.450Z,74.13
2017-10-20T14:11:20.023Z,81.27
2017-10-20T14:13:54.716Z,87.60
2017-10-20T14:16:29.226Z,83.43
2017-10-20T14:19:03.781Z,72.37
2017-10-20T14:21:39.273Z,80.53
2017-10-20T14:24:13.878Z,64.10
2017-10-20T14:26:48.374Z,70.53
2017-10-20T14:29:22.978Z,75.20
2017-10-20T14:31:57.358Z,85.43
2017-10-20T14:34:31.862Z,87.67
2017-10-20T14:37:06.406Z,76.13
2017-10-20T14:39:41.051Z,86.07
2017-10-20T14:42:15.818Z,81.97
2017-10-20T14:44:50.418Z,77.20
2017-10-20T14:47:25.016Z,72.37
2017-10-20T14:49:59.783Z,89.10
2017-10-20T14:52:34.429Z,75.13
2017-10-20T14:55:15.696Z,75.53
2017-10-20T14:57:50.594Z,81.47
2017-10-20T15:00:25.242Z,105.37
2017-10-20T15:02:59.818Z,81.80
2017-10-20T15:05:34.366Z,80.87
2017-10-20T15:08:09.004Z,79.33
2017-10-20T15:10:43.645Z,79.20
2017-10-20T15:13:19.048Z,105.30
2017-10-20T15:15:54.502Z,98.40
2017-10-20T15:18:29.118Z,107.90
2017-10-20T15:21:03.626Z,105.97
2017-10-20T15:23:38.125Z,114.93
2017-10-20T15:26:12.755Z,108.63
2017-10-20T15:28:47.437Z,126.10
2017-10-20T15:31:22.069Z,124.77
2017-10-20T15:33:56.751Z,114.00
2017-10-20T15:36:31.230Z,117.60
2017-10-20T15:39:06.670Z,110.87
2017-10-20T15:41:41.184Z,108.60
2017-10-20T15:44:16.395Z,115.97
2017-10-20T15:46:51.053Z,108.30
2017-10-20T15:49:25.658Z,121.37
2017-10-20T15:52:00.183Z,140.17
2017-10-20T15:54:34.790Z,129.07
2017-10-20T15:57:09.493Z,138.37
2017-10-20T15:59:43.976Z,143.53
2017-10-20T16:02:18.790Z,138.40
2017-10-20T16:04:53.215Z,130.50
2017-10-20T16:07:27.781Z,131.30
2017-10-20T16:10:02.738Z,148.57
2017-10-20T16:12:43.423Z,151.77
2017-10-20T16:15:17.942Z,147.00
2017-10-20T16:17:52.397Z,157.70
2017-10-20T16:20:26.926Z,125.97
2017-10-20T16:23:01.651Z,131.13
2017-10-20T16:25:36.218Z,122.23
2017-10-20T16:28:10.897Z,135.33
2017-10-20T16:30:45.470Z,148.77
2017-10-20T16:33:19.988Z,154.67
2017-10-20T16:35:54.534Z,130.00
2017-10-20T16:38:29.119Z,148.23
2017-10-20T16:41:03.598Z,138.40
2017-10-20T16:43:38.169Z,151.80
2017-10-20T16:46:12.757Z,142.33
2017-10-20T16:48:47.346Z,140.50
2017-10-20T16:51:21.882Z,156.10
2017-10-20T16:53:56.446Z,143.37
2017-10-20T16:56:30.973Z,144.40
2017-10-20T16:59:05.611Z,145.60
2017-10-20T17:01:40.110Z,154.60
2017-10-20T17:04:15.530Z,171.03
2017-10-20T17:06:49.990Z,169.13
2017-10-20T17:09:25.197Z,178.80
2017-10-20T17:11:59.698Z,154.20
2017-10-20T17:14:34.322Z,161.70
2017-10-20T17:17:08.915Z,167.83
2017-10-20T17:19:46.251Z,141.47
2017-10-20T17:22:20.677Z,142.17
2017-10-20T17:24:55.230Z,142.30
2017-10-20T17:27:29.751Z,169.83
2017-10-20T17:32:45.166Z,166.00
2017-10-20T17:35:19.700Z,150.87
2017-10-20T17:37:54.358Z,168.90
2017-10-20T17:40:29.619Z,156.63
2017-10-20T17:43:04.354Z,147.97
2017-10-20T17:45:38.890Z,145.87
2017-10-20T17:48:13.422Z,160.17
2017-10-20T17:50:48.031Z,155.83
2017-10-20T17:53:22.626Z,170.57
2017-10-20T17:55:57.239Z,157.57
2017-10-20T17:58:32.058Z,154.30
2017-10-20T18:01:06.692Z,160.50
2017-10-20T18:03:42.175Z,159.27
2017-10-20T18:06:16.726Z,161.83
2017-10-20T18:08:51.226Z,155.43
2017-10-20T18:11:25.696Z,150.33
2017-10-20T18:14:00.184Z,142.53
2017-10-20T18:16:34.728Z,160.60
2017-10-20T18:19:09.179Z,129.93
2017-10-20T18:21:43.846Z,147.03
2017-10-20T18:24:18.350Z,140.57
2017-10-20T18:26:52.894Z,129.73
2017-10-20T18:29:27.480Z,149.83
2017-10-20T18:32:02.158Z,143.97
2017-10-20T18:34:36.843Z,143.30
2017-10-20T18:37:11.447Z,140.10
2017-10-20T18:39:45.919Z,173.17
2017-10-20T18:42:20.415Z,152.73
2017-10-20T18:44:55.190Z,171.47
2017-10-20T18:47:30.614Z,155.07
2017-10-20T18:50:14.414Z,135.77
2017-10-20T18:52:48.914Z,157.23
2017-10-20T18:55:23.478Z,152.87
2017-10-20T18:57:57.953Z,147.73
2017-10-20T19:00:32.586Z,146.70
2017-10-20T19:03:07.254Z,144.07
2017-10-20T19:05:41.463Z,161.53
2017-10-20T19:08:16.047Z,152.37
2017-10-20T19:10:50.545Z,146.10
2017-10-20T19:13:25.166Z,125.80
2017-10-20T19:15:59.722Z,167.30
2017-10-20T19:18:34.676Z,157.47
2017-10-20T19:21:09.422Z,146.40
2017-10-20T19:23:44.795Z,148.03
2017-10-20T19:26:20.210Z,164.03
2017-10-20T19:28:54.819Z,140.57
2017-10-20T19:31:29.268Z,131.50
2017-10-20T19:34:03.772Z,121.67
2017-10-20T19:36:38.333Z,140.43
2017-10-20T19:39:12.986Z,127.83
2017-10-20T19:41:47.577Z,124.83
2017-10-20T19:44:22.239Z,132.73
2017-10-20T19:46:56.854Z,130.20
2017-10-20T19:49:31.444Z,131.53
2017-10-20T19:52:06.054Z,123.10
2017-10-20T19:54:40.566Z,135.00
2017-10-20T19:57:15.165Z,138.03
2017-10-20T19:59:49.818Z,119.13
2017-10-20T20:02:24.558Z,133.47
2017-10-20T20:04:59.141Z,128.83
2017-10-20T20:07:33.820Z,136.40
2017-10-20T20:10:16.168Z,132.93
2017-10-20T20:12:50.742Z,128.80
2017-10-20T20:15:25.426Z,129.93
2017-10-20T20:18:00.100Z,126.17
2017-10-20T20:20:34.515Z,132.07
2017-10-20T20:23:09.146Z,132.27
2017-10-20T20:25:43.526Z,136.67
2017-10-20T20:28:18.403Z,127.80
2017-10-20T20:30:52.818Z,125.80
2017-10-20T20:33:27.998Z,125.33
2017-10-20T20:36:03.148Z,132.17
2017-10-20T20:38:37.421Z,136.20
2017-10-20T20:41:12.010Z,153.53
2017-10-20T20:43:46.530Z,122.13
2017-10-20T20:46:21.138Z,124.50
2017-10-20T20:48:55.610Z,132.97
2017-10-20T20:51:30.218Z,122.53
2017-10-20T20:54:04.894Z,128.73
2017-10-20T20:56:39.474Z,142.67
2017-10-20T20:59:14.183Z,131.60
2017-10-20T21:01:48.997Z,122.63
2017-10-20T21:04:23.992Z,127.10
2017-10-20T21:06:58.513Z,112.17
2017-10-20T21:09:33.249Z,115.90
2017-10-20T21:12:07.834Z,123.10
2017-10-20T21:14:42.483Z,120.57
2017-10-20T21:17:17.246Z,142.63
2017-10-20T21:19:51.907Z,117.17
2017-10-20T21:22:26.362Z,119.43
2017-10-20T21:25:01.024Z,121.63
2017-10-20T21:27:36.081Z,117.50
2017-10-20T21:30:12.665Z,121.20
2017-10-20T21:32:47.544Z,127.10
2017-10-20T21:35:22.193Z,120.77
2017-10-20T21:37:57.158Z,117.80
2017-10-20T21:40:31.827Z,125.10
2017-10-20T21:43:06.446Z,122.07
2017-10-20T21:45:41.037Z,134.40
2017-10-20T21:48:15.526Z,119.00
2017-10-20T21:50:50.058Z,124.50
2017-10-20T21:53:24.574Z,124.20
2017-10-20T21:55:59.074Z,139.20
2017-10-20T21:58:33.743Z,150.30
2017-10-20T22:01:07.655Z,119.23
2017-10-20T22:03:42.246Z,128.80
2017-10-20T22:06:16.909Z,118.80
2017-10-20T22:08:51.487Z,123.67
2017-10-20T22:11:25.952Z,127.50
2017-10-20T22:14:00.372Z,123.33
2017-10-20T22:16:35.370Z,122.63
2017-10-20T22:19:09.973Z,116.23
2017-10-20T22:21:44.542Z,113.10
2017-10-20T22:24:19.182Z,126.33
2017-10-20T22:26:53.855Z,108.07
2017-10-20T22:29:28.559Z,125.07
2017-10-20T22:32:03.301Z,108.53
2017-10-20T22:34:37.994Z,119.73
2017-10-20T22:37:12.637Z,107.47
2017-10-20T22:39:47.149Z,102.10
2017-10-20T22:42:21.793Z,113.87
2017-10-20T22:44:56.371Z,106.63
2017-10-20T22:47:30.985Z,96.50
2017-10-20T22:50:15.003Z,92.23
2017-10-20T22:52:49.582Z,97.03
2017-10-20T22:55:24.169Z,82.80
2017-10-20T22:57:58.860Z,93.83
2017-10-20T23:00:33.482Z,99.33
2017-10-20T23:03:07.950Z,109.23
2017-10-20T23:05:42.468Z,102.33
2017-10-20T23:08:16.934Z,103.67
2017-10-20T23:10:51.570Z,103.30
2017-10-20T23:13:26.033Z,100.30
2017-10-20T23:16:00.683Z,111.30
2017-10-20T23:18:35.441Z,111.13
2017-10-20T23:21:09.964Z,120.33
2017-10-20T23:23:44.531Z,103.73
2017-10-20T23:26:19.102Z,89.77
2017-10-20T23:28:53.717Z,95.57
2017-10-20T23:31:28.266Z,101.37
2017-10-20T23:34:02.883Z,85.70
2017-10-20T23:36:37.434Z,91.87
2017-10-20T23:39:12.074Z,92.70
2017-10-20T23:41:46.585Z,81.07
2017-10-20T23:44:21.629Z,93.70
2017-10-20T23:46:56.170Z,86.30
2017-10-20T23:49:30.725Z,96.50
2017-10-20T23:52:05.417Z,88.17
2017-10-20T23:54:39.955Z,76.07
2017-10-20T23:57:14.590Z,86.97
2017-10-20T23:59:49.146Z,84.07
